sensor_id;sensor_type;location;lat;lon;timestamp;P1;durP1;ratioP1;P2;durP2;ratioP2
77598;SDS011;66758;52.078;5.070;2024-01-27T00:02:30;12.20;;;2.88;;
77598;SDS011;66758;52.078;5.070;2024-01-27T00:04:55;10.13;;;2.83;;
77598;SDS011;66758;52.078;5.070;2024-01-27T00:07:20;12.73;;;3.17;;
77598;SDS011;66758;52.078;5.070;2024-01-27T00:09:47;16.17;;;3.10;;
77598;SDS011;66758;52.078;5.070;2024-01-27T00:12:14;12.73;;;2.80;;
77598;SDS011;66758;52.078;5.070;2024-01-27T00:14:39;15.40;;;3.20;;
77598;SDS011;66758;52.078;5.070;2024-01-27T00:28:09;12.82;;;2.50;;
77598;SDS011;66758;52.078;5.070;2024-01-27T00:30:34;12.80;;;2.63;;
77598;SDS011;66758;52.078;5.070;2024-01-27T00:33:00;10.10;;;2.50;;
77598;SDS011;66758;52.078;5.070;2024-01-27T00:35:25;11.27;;;2.83;;
77598;SDS011;66758;52.078;5.070;2024-01-27T00:37:50;17.10;;;3.30;;
77598;SDS011;66758;52.078;5.070;2024-01-27T00:40:16;12.47;;;3.10;;
77598;SDS011;66758;52.078;5.070;2024-01-27T00:42:46;14.70;;;2.72;;
77598;SDS011;66758;52.078;5.070;2024-01-27T00:45:11;13.30;;;2.10;;
77598;SDS011;66758;52.078;5.070;2024-01-27T00:47:38;11.68;;;2.70;;
77598;SDS011;66758;52.078;5.070;2024-01-27T00:50:05;15.57;;;3.00;;
77598;SDS011;66758;52.078;5.070;2024-01-27T00:52:33;14.40;;;2.50;;
77598;SDS011;66758;52.078;5.070;2024-01-27T00:54:59;14.63;;;2.53;;
77598;SDS011;66758;52.078;5.070;2024-01-27T00:57:27;10.82;;;2.60;;
77598;SDS011;66758;52.078;5.070;2024-01-27T00:59:52;14.67;;;2.90;;
77598;SDS011;66758;52.078;5.070;2024-01-27T01:02:20;8.82;;;1.80;;
77598;SDS011;66758;52.078;5.070;2024-01-27T01:04:47;10.88;;;2.17;;
77598;SDS011;66758;52.078;5.070;2024-01-27T01:07:13;11.50;;;2.33;;
77598;SDS011;66758;52.078;5.070;2024-01-27T01:09:39;12.63;;;2.77;;
77598;SDS011;66758;52.078;5.070;2024-01-27T01:12:04;10.77;;;2.43;;
77598;SDS011;66758;52.078;5.070;2024-01-27T01:14:35;13.65;;;2.35;;
77598;SDS011;66758;52.078;5.070;2024-01-27T01:17:02;10.80;;;2.35;;
77598;SDS011;66758;52.078;5.070;2024-01-27T01:19:30;9.77;;;1.73;;
77598;SDS011;66758;52.078;5.070;2024-01-27T01:21:56;9.65;;;1.88;;
77598;SDS011;66758;52.078;5.070;2024-01-27T01:24:22;11.67;;;3.03;;
77598;SDS011;66758;52.078;5.070;2024-01-27T01:26:47;10.40;;;2.17;;
77598;SDS011;66758;52.078;5.070;2024-01-27T01:29:12;11.15;;;2.22;;
77598;SDS011;66758;52.078;5.070;2024-01-27T01:31:37;10.17;;;2.10;;
77598;SDS011;66758;52.078;5.070;2024-01-27T01:34:03;11.33;;;2.33;;
77598;SDS011;66758;52.078;5.070;2024-01-27T01:36:28;7.53;;;1.93;;
77598;SDS011;66758;52.078;5.070;2024-01-27T01:38:53;11.73;;;2.00;;
77598;SDS011;66758;52.078;5.070;2024-01-27T01:41:19;10.00;;;2.00;;
77598;SDS011;66758;52.078;5.070;2024-01-27T01:43:45;11.90;;;2.00;;
77598;SDS011;66758;52.078;5.070;2024-01-27T01:46:11;6.17;;;1.70;;
77598;SDS011;66758;52.078;5.070;2024-01-27T01:48:36;10.63;;;2.00;;
77598;SDS011;66758;52.078;5.070;2024-01-27T01:51:12;12.47;;;2.13;;
77598;SDS011;66758;52.078;5.070;2024-01-27T01:53:37;9.55;;;2.95;;
77598;SDS011;66758;52.078;5.070;2024-01-27T01:56:03;11.70;;;1.90;;
77598;SDS011;66758;52.078;5.070;2024-01-27T01:58:30;11.63;;;2.20;;
77598;SDS011;66758;52.078;5.070;2024-01-27T02:01:05;13.20;;;2.30;;
77598;SDS011;66758;52.078;5.070;2024-01-27T02:03:31;10.13;;;1.70;;
77598;SDS011;66758;52.078;5.070;2024-01-27T02:05:56;10.07;;;1.93;;
77598;SDS011;66758;52.078;5.070;2024-01-27T02:08:21;12.90;;;2.37;;
77598;SDS011;66758;52.078;5.070;2024-01-27T02:10:47;14.27;;;2.53;;
77598;SDS011;66758;52.078;5.070;2024-01-27T02:13:19;7.80;;;1.77;;
77598;SDS011;66758;52.078;5.070;2024-01-27T02:15:47;8.55;;;1.98;;
77598;SDS011;66758;52.078;5.070;2024-01-27T02:18:13;9.27;;;2.10;;
77598;SDS011;66758;52.078;5.070;2024-01-27T02:20:40;10.05;;;1.85;;
77598;SDS011;66758;52.078;5.070;2024-01-27T02:23:05;10.30;;;2.43;;
77598;SDS011;66758;52.078;5.070;2024-01-27T02:25:31;13.52;;;1.70;;
77598;SDS011;66758;52.078;5.070;2024-01-27T02:27:58;13.43;;;1.75;;
77598;SDS011;66758;52.078;5.070;2024-01-27T02:30:23;10.67;;;1.50;;
77598;SDS011;66758;52.078;5.070;2024-01-27T02:32:51;9.63;;;1.77;;
77598;SDS011;66758;52.078;5.070;2024-01-27T02:35:18;9.38;;;2.08;;
77598;SDS011;66758;52.078;5.070;2024-01-27T02:37:43;8.27;;;1.60;;
77598;SDS011;66758;52.078;5.070;2024-01-27T02:40:11;10.55;;;1.95;;
77598;SDS011;66758;52.078;5.070;2024-01-27T02:42:36;8.07;;;1.70;;
77598;SDS011;66758;52.078;5.070;2024-01-27T02:45:03;13.57;;;2.10;;
77598;SDS011;66758;52.078;5.070;2024-01-27T02:47:30;10.60;;;1.77;;
77598;SDS011;66758;52.078;5.070;2024-01-27T02:49:55;8.33;;;1.87;;
77598;SDS011;66758;52.078;5.070;2024-01-27T02:52:20;10.17;;;2.30;;
77598;SDS011;66758;52.078;5.070;2024-01-27T02:54:47;9.77;;;1.63;;
77598;SDS011;66758;52.078;5.070;2024-01-27T02:57:13;6.70;;;1.95;;
77598;SDS011;66758;52.078;5.070;2024-01-27T02:59:39;12.27;;;2.97;;
77598;SDS011;66758;52.078;5.070;2024-01-27T03:02:07;13.25;;;2.30;;
77598;SDS011;66758;52.078;5.070;2024-01-27T03:04:32;14.10;;;2.70;;
77598;SDS011;66758;52.078;5.070;2024-01-27T03:06:59;7.68;;;1.63;;
77598;SDS011;66758;52.078;5.070;2024-01-27T03:09:26;15.20;;;1.90;;
77598;SDS011;66758;52.078;5.070;2024-01-27T03:11:57;9.52;;;1.40;;
77598;SDS011;66758;52.078;5.070;2024-01-27T03:14:23;8.75;;;2.10;;
77598;SDS011;66758;52.078;5.070;2024-01-27T08:23:36;20.42;;;10.35;;
77598;SDS011;66758;52.078;5.070;2024-01-27T08:26:01;20.77;;;10.20;;
77598;SDS011;66758;52.078;5.070;2024-01-27T08:28:28;18.05;;;9.68;;
77598;SDS011;66758;52.078;5.070;2024-01-27T08:30:53;19.87;;;9.57;;
77598;SDS011;66758;52.078;5.070;2024-01-27T08:33:18;15.53;;;9.10;;
77598;SDS011;66758;52.078;5.070;2024-01-27T08:35:46;16.23;;;9.87;;
77598;SDS011;66758;52.078;5.070;2024-01-27T08:38:11;19.42;;;9.80;;
77598;SDS011;66758;52.078;5.070;2024-01-27T08:40:36;18.10;;;10.13;;
77598;SDS011;66758;52.078;5.070;2024-01-27T08:43:01;20.83;;;10.40;;
77598;SDS011;66758;52.078;5.070;2024-01-27T08:45:27;16.77;;;9.07;;
77598;SDS011;66758;52.078;5.070;2024-01-27T08:47:54;22.20;;;10.63;;
77598;SDS011;66758;52.078;5.070;2024-01-27T08:50:20;23.58;;;10.02;;
77598;SDS011;66758;52.078;5.070;2024-01-27T08:52:46;19.07;;;10.43;;
77598;SDS011;66758;52.078;5.070;2024-01-27T08:55:13;22.02;;;10.48;;
77598;SDS011;66758;52.078;5.070;2024-01-27T08:57:38;23.25;;;10.30;;
77598;SDS011;66758;52.078;5.070;2024-01-27T09:00:05;20.70;;;9.97;;
77598;SDS011;66758;52.078;5.070;2024-01-27T09:02:30;21.58;;;10.52;;
77598;SDS011;66758;52.078;5.070;2024-01-27T09:04:56;22.65;;;10.88;;
77598;SDS011;66758;52.078;5.070;2024-01-27T09:07:23;22.77;;;10.93;;
77598;SDS011;66758;52.078;5.070;2024-01-27T09:09:49;20.03;;;9.73;;
77598;SDS011;66758;52.078;5.070;2024-01-27T09:12:14;19.63;;;11.13;;
77598;SDS011;66758;52.078;5.070;2024-01-27T09:14:41;19.20;;;9.68;;
77598;SDS011;66758;52.078;5.070;2024-01-27T09:17:06;17.43;;;10.23;;
77598;SDS011;66758;52.078;5.070;2024-01-27T09:19:33;24.55;;;10.75;;
77598;SDS011;66758;52.078;5.070;2024-01-27T09:21:58;26.17;;;11.40;;
77598;SDS011;66758;52.078;5.070;2024-01-27T09:24:24;21.23;;;11.13;;
77598;SDS011;66758;52.078;5.070;2024-01-27T09:26:49;29.60;;;13.83;;
77598;SDS011;66758;52.078;5.070;2024-01-27T09:29:14;30.77;;;15.03;;
77598;SDS011;66758;52.078;5.070;2024-01-27T09:31:40;40.10;;;14.83;;
77598;SDS011;66758;52.078;5.070;2024-01-27T09:34:05;37.78;;;16.65;;
77598;SDS011;66758;52.078;5.070;2024-01-27T09:36:31;38.47;;;16.03;;
77598;SDS011;66758;52.078;5.070;2024-01-27T09:38:57;37.10;;;16.37;;
77598;SDS011;66758;52.078;5.070;2024-01-27T09:41:24;37.13;;;16.50;;
77598;SDS011;66758;52.078;5.070;2024-01-27T09:43:54;36.53;;;14.85;;
77598;SDS011;66758;52.078;5.070;2024-01-27T09:46:22;35.38;;;14.27;;
77598;SDS011;66758;52.078;5.070;2024-01-27T09:48:48;37.83;;;13.80;;
77598;SDS011;66758;52.078;5.070;2024-01-27T09:51:14;27.40;;;13.03;;
77598;SDS011;66758;52.078;5.070;2024-01-27T09:53:44;26.52;;;11.77;;
77598;SDS011;66758;52.078;5.070;2024-01-27T09:56:13;22.10;;;11.48;;
77598;SDS011;66758;52.078;5.070;2024-01-27T09:58:44;25.20;;;10.57;;
77598;SDS011;66758;52.078;5.070;2024-01-27T10:01:16;23.77;;;9.93;;
77598;SDS011;66758;52.078;5.070;2024-01-27T10:03:42;21.75;;;9.80;;
77598;SDS011;66758;52.078;5.070;2024-01-27T10:06:10;22.83;;;8.95;;
77598;SDS011;66758;52.078;5.070;2024-01-27T10:08:36;21.15;;;8.95;;
77598;SDS011;66758;52.078;5.070;2024-01-27T10:11:06;19.50;;;8.67;;
77598;SDS011;66758;52.078;5.070;2024-01-27T10:13:32;17.30;;;8.20;;
77598;SDS011;66758;52.078;5.070;2024-01-27T10:16:03;16.58;;;7.78;;
77598;SDS011;66758;52.078;5.070;2024-01-27T10:18:31;19.67;;;6.73;;
77598;SDS011;66758;52.078;5.070;2024-01-27T10:20:57;14.07;;;6.97;;
77598;SDS011;66758;52.078;5.070;2024-01-27T10:23:22;14.47;;;6.60;;
77598;SDS011;66758;52.078;5.070;2024-01-27T10:25:49;14.07;;;6.95;;
77598;SDS011;66758;52.078;5.070;2024-01-27T10:28:15;12.67;;;6.20;;
77598;SDS011;66758;52.078;5.070;2024-01-27T10:30:40;12.48;;;6.53;;
77598;SDS011;66758;52.078;5.070;2024-01-27T10:33:09;15.43;;;6.63;;
77598;SDS011;66758;52.078;5.070;2024-01-27T10:35:40;12.23;;;6.75;;
77598;SDS011;66758;52.078;5.070;2024-01-27T10:38:06;13.63;;;6.53;;
77598;SDS011;66758;52.078;5.070;2024-01-27T10:40:31;18.87;;;6.73;;
77598;SDS011;66758;52.078;5.070;2024-01-27T10:43:04;15.10;;;6.93;;
77598;SDS011;66758;52.078;5.070;2024-01-27T10:48:00;13.25;;;6.22;;
77598;SDS011;66758;52.078;5.070;2024-01-27T10:50:26;14.25;;;5.93;;
77598;SDS011;66758;52.078;5.070;2024-01-27T10:52:52;14.77;;;6.10;;
77598;SDS011;66758;52.078;5.070;2024-01-27T10:55:18;13.82;;;5.82;;
77598;SDS011;66758;52.078;5.070;2024-01-27T10:57:44;17.10;;;6.67;;
77598;SDS011;66758;52.078;5.070;2024-01-27T11:00:10;14.48;;;6.40;;
77598;SDS011;66758;52.078;5.070;2024-01-27T11:02:37;17.80;;;6.22;;
77598;SDS011;66758;52.078;5.070;2024-01-27T11:05:02;12.67;;;5.80;;
77598;SDS011;66758;52.078;5.070;2024-01-27T11:07:32;15.40;;;6.82;;
77598;SDS011;66758;52.078;5.070;2024-01-27T11:09:57;13.20;;;5.65;;
77598;SDS011;66758;52.078;5.070;2024-01-27T11:12:22;13.47;;;5.37;;
77598;SDS011;66758;52.078;5.070;2024-01-27T11:14:49;13.93;;;5.47;;
77598;SDS011;66758;52.078;5.070;2024-01-27T11:17:15;12.68;;;6.15;;
77598;SDS011;66758;52.078;5.070;2024-01-27T11:19:41;18.45;;;6.70;;
77598;SDS011;66758;52.078;5.070;2024-01-27T11:22:07;12.48;;;5.63;;
77598;SDS011;66758;52.078;5.070;2024-01-27T11:24:34;12.97;;;5.70;;
77598;SDS011;66758;52.078;5.070;2024-01-27T11:27:03;14.27;;;6.00;;
77598;SDS011;66758;52.078;5.070;2024-01-27T11:29:29;15.00;;;6.27;;
77598;SDS011;66758;52.078;5.070;2024-01-27T11:32:01;10.57;;;5.25;;
77598;SDS011;66758;52.078;5.070;2024-01-27T11:34:43;16.10;;;5.85;;
77598;SDS011;66758;52.078;5.070;2024-01-27T11:37:11;14.88;;;5.57;;
77598;SDS011;66758;52.078;5.070;2024-01-27T11:39:37;12.57;;;5.03;;
77598;SDS011;66758;52.078;5.070;2024-01-27T11:42:06;14.40;;;5.60;;
77598;SDS011;66758;52.078;5.070;2024-01-27T11:44:38;13.77;;;5.25;;
77598;SDS011;66758;52.078;5.070;2024-01-27T11:47:04;14.27;;;5.80;;
77598;SDS011;66758;52.078;5.070;2024-01-27T11:49:32;12.73;;;5.93;;
77598;SDS011;66758;52.078;5.070;2024-01-27T11:51:58;17.43;;;5.60;;
77598;SDS011;66758;52.078;5.070;2024-01-27T11:54:23;12.90;;;5.20;;
77598;SDS011;66758;52.078;5.070;2024-01-27T11:56:50;11.33;;;5.33;;
77598;SDS011;66758;52.078;5.070;2024-01-27T11:59:38;15.02;;;5.72;;
77598;SDS011;66758;52.078;5.070;2024-01-27T12:02:03;12.07;;;5.67;;
77598;SDS011;66758;52.078;5.070;2024-01-27T12:04:29;14.43;;;5.40;;
77598;SDS011;66758;52.078;5.070;2024-01-27T12:06:54;15.07;;;5.30;;
77598;SDS011;66758;52.078;5.070;2024-01-27T12:09:20;15.75;;;5.57;;
77598;SDS011;66758;52.078;5.070;2024-01-27T12:11:47;18.83;;;4.57;;
77598;SDS011;66758;52.078;5.070;2024-01-27T12:14:12;13.47;;;3.90;;
77598;SDS011;66758;52.078;5.070;2024-01-27T12:16:38;15.80;;;4.17;;
77598;SDS011;66758;52.078;5.070;2024-01-27T12:19:03;14.00;;;3.87;;
77598;SDS011;66758;52.078;5.070;2024-01-27T12:21:29;14.73;;;4.40;;
77598;SDS011;66758;52.078;5.070;2024-01-27T12:23:55;12.00;;;4.13;;
77598;SDS011;66758;52.078;5.070;2024-01-27T12:26:22;9.90;;;3.73;;
77598;SDS011;66758;52.078;5.070;2024-01-27T12:28:48;20.00;;;4.05;;
77598;SDS011;66758;52.078;5.070;2024-01-27T12:31:15;16.85;;;3.92;;
77598;SDS011;66758;52.078;5.070;2024-01-27T12:33:48;12.15;;;4.07;;
77598;SDS011;66758;52.078;5.070;2024-01-27T12:36:16;14.43;;;3.92;;
77598;SDS011;66758;52.078;5.070;2024-01-27T12:38:45;13.40;;;4.00;;
77598;SDS011;66758;52.078;5.070;2024-01-27T12:41:18;13.32;;;4.22;;
77598;SDS011;66758;52.078;5.070;2024-01-27T12:43:44;17.65;;;4.20;;
77598;SDS011;66758;52.078;5.070;2024-01-27T12:46:10;11.80;;;3.80;;
77598;SDS011;66758;52.078;5.070;2024-01-27T12:48:37;10.88;;;3.88;;
77598;SDS011;66758;52.078;5.070;2024-01-27T12:51:04;10.90;;;3.90;;
77598;SDS011;66758;52.078;5.070;2024-01-27T12:53:29;14.13;;;3.70;;
77598;SDS011;66758;52.078;5.070;2024-01-27T12:55:54;21.50;;;4.40;;
77598;SDS011;66758;52.078;5.070;2024-01-27T12:58:20;16.73;;;4.57;;
77598;SDS011;66758;52.078;5.070;2024-01-27T13:00:45;14.17;;;4.23;;
77598;SDS011;66758;52.078;5.070;2024-01-27T13:03:10;16.00;;;3.73;;
77598;SDS011;66758;52.078;5.070;2024-01-27T13:05:36;11.67;;;4.17;;
77598;SDS011;66758;52.078;5.070;2024-01-27T13:08:03;12.68;;;4.38;;
77598;SDS011;66758;52.078;5.070;2024-01-27T13:10:30;15.00;;;4.93;;
77598;SDS011;66758;52.078;5.070;2024-01-27T13:12:55;17.00;;;4.60;;
77598;SDS011;66758;52.078;5.070;2024-01-27T13:15:22;15.38;;;4.40;;
77598;SDS011;66758;52.078;5.070;2024-01-27T13:17:50;25.13;;;5.30;;
77598;SDS011;66758;52.078;5.070;2024-01-27T13:20:16;13.33;;;5.07;;
77598;SDS011;66758;52.078;5.070;2024-01-27T13:22:42;17.15;;;4.43;;
77598;SDS011;66758;52.078;5.070;2024-01-27T13:25:07;15.83;;;4.20;;
77598;SDS011;66758;52.078;5.070;2024-01-27T13:27:33;15.07;;;4.40;;
77598;SDS011;66758;52.078;5.070;2024-01-27T13:29:59;14.23;;;4.90;;
77598;SDS011;66758;52.078;5.070;2024-01-27T13:32:24;15.13;;;5.27;;
77598;SDS011;66758;52.078;5.070;2024-01-27T13:34:51;15.13;;;4.65;;
77598;SDS011;66758;52.078;5.070;2024-01-27T13:37:17;18.85;;;4.70;;
77598;SDS011;66758;52.078;5.070;2024-01-27T13:39:43;14.67;;;4.73;;
77598;SDS011;66758;52.078;5.070;2024-01-27T13:42:09;17.90;;;4.72;;
77598;SDS011;66758;52.078;5.070;2024-01-27T13:44:35;15.87;;;5.03;;
77598;SDS011;66758;52.078;5.070;2024-01-27T13:47:01;16.55;;;4.97;;
77598;SDS011;66758;52.078;5.070;2024-01-27T13:49:28;17.40;;;5.18;;
77598;SDS011;66758;52.078;5.070;2024-01-27T13:52:05;13.13;;;4.95;;
77598;SDS011;66758;52.078;5.070;2024-01-27T13:54:30;20.47;;;5.30;;
77598;SDS011;66758;52.078;5.070;2024-01-27T13:56:57;15.48;;;4.78;;
77598;SDS011;66758;52.078;5.070;2024-01-27T13:59:24;13.70;;;4.90;;
77598;SDS011;66758;52.078;5.070;2024-01-27T14:01:50;16.70;;;4.67;;
77598;SDS011;66758;52.078;5.070;2024-01-27T14:04:22;19.60;;;4.35;;
77598;SDS011;66758;52.078;5.070;2024-01-27T14:06:49;14.05;;;4.78;;
77598;SDS011;66758;52.078;5.070;2024-01-27T14:09:16;14.30;;;4.33;;
77598;SDS011;66758;52.078;5.070;2024-01-27T14:11:41;14.98;;;4.65;;
77598;SDS011;66758;52.078;5.070;2024-01-27T14:14:06;20.97;;;5.00;;
77598;SDS011;66758;52.078;5.070;2024-01-27T14:16:32;13.30;;;4.03;;
77598;SDS011;66758;52.078;5.070;2024-01-27T14:18:59;16.13;;;4.50;;
77598;SDS011;66758;52.078;5.070;2024-01-27T14:21:25;15.17;;;4.67;;
77598;SDS011;66758;52.078;5.070;2024-01-27T14:23:52;12.43;;;3.92;;
77598;SDS011;66758;52.078;5.070;2024-01-27T14:26:29;17.35;;;4.88;;
77598;SDS011;66758;52.078;5.070;2024-01-27T14:28:55;22.15;;;5.03;;
77598;SDS011;66758;52.078;5.070;2024-01-27T14:31:21;11.50;;;3.40;;
77598;SDS011;66758;52.078;5.070;2024-01-27T14:33:46;16.33;;;3.90;;
77598;SDS011;66758;52.078;5.070;2024-01-27T14:36:12;15.17;;;3.87;;
77598;SDS011;66758;52.078;5.070;2024-01-27T14:38:38;11.38;;;3.50;;
77598;SDS011;66758;52.078;5.070;2024-01-27T14:41:04;15.90;;;4.43;;
77598;SDS011;66758;52.078;5.070;2024-01-27T14:43:34;17.50;;;4.22;;
77598;SDS011;66758;52.078;5.070;2024-01-27T14:46:02;13.25;;;3.70;;
77598;SDS011;66758;52.078;5.070;2024-01-27T14:48:29;14.40;;;3.90;;
77598;SDS011;66758;52.078;5.070;2024-01-27T14:50:54;11.73;;;3.38;;
77598;SDS011;66758;52.078;5.070;2024-01-27T14:53:24;11.30;;;3.47;;
77598;SDS011;66758;52.078;5.070;2024-01-27T14:55:51;10.38;;;3.25;;
77598;SDS011;66758;52.078;5.070;2024-01-27T14:58:17;16.48;;;4.32;;
77598;SDS011;66758;52.078;5.070;2024-01-27T15:00:42;13.40;;;3.60;;
77598;SDS011;66758;52.078;5.070;2024-01-27T15:03:08;14.32;;;4.00;;
77598;SDS011;66758;52.078;5.070;2024-01-27T15:05:33;12.83;;;3.93;;
77598;SDS011;66758;52.078;5.070;2024-01-27T15:08:02;15.38;;;3.80;;
77598;SDS011;66758;52.078;5.070;2024-01-27T15:10:27;14.00;;;3.67;;
77598;SDS011;66758;52.078;5.070;2024-01-27T15:12:52;18.00;;;3.67;;
77598;SDS011;66758;52.078;5.070;2024-01-27T15:15:17;14.73;;;3.47;;
77598;SDS011;66758;52.078;5.070;2024-01-27T15:17:43;16.37;;;3.33;;
77598;SDS011;66758;52.078;5.070;2024-01-27T15:20:08;9.80;;;3.13;;
77598;SDS011;66758;52.078;5.070;2024-01-27T15:22:34;13.40;;;3.28;;
77598;SDS011;66758;52.078;5.070;2024-01-27T15:24:59;16.47;;;3.87;;
77598;SDS011;66758;52.078;5.070;2024-01-27T15:27:25;14.83;;;3.20;;
77598;SDS011;66758;52.078;5.070;2024-01-27T15:29:50;16.47;;;3.50;;
77598;SDS011;66758;52.078;5.070;2024-01-27T15:32:15;12.53;;;3.80;;
77598;SDS011;66758;52.078;5.070;2024-01-27T15:34:46;13.88;;;3.60;;
77598;SDS011;66758;52.078;5.070;2024-01-27T15:37:11;10.73;;;3.13;;
77598;SDS011;66758;52.078;5.070;2024-01-27T15:39:36;14.57;;;3.93;;
77598;SDS011;66758;52.078;5.070;2024-01-27T15:42:02;16.37;;;3.23;;
77598;SDS011;66758;52.078;5.070;2024-01-27T15:44:29;15.38;;;3.38;;
77598;SDS011;66758;52.078;5.070;2024-01-27T15:46:54;13.27;;;3.83;;
77598;SDS011;66758;52.078;5.070;2024-01-27T15:49:21;15.00;;;3.80;;
77598;SDS011;66758;52.078;5.070;2024-01-27T15:51:47;16.10;;;4.43;;
77598;SDS011;66758;52.078;5.070;2024-01-27T15:54:12;19.53;;;4.30;;
77598;SDS011;66758;52.078;5.070;2024-01-27T15:56:38;14.10;;;4.00;;
77598;SDS011;66758;52.078;5.070;2024-01-27T15:59:05;13.80;;;4.30;;
77598;SDS011;66758;52.078;5.070;2024-01-27T16:01:30;14.80;;;3.87;;
77598;SDS011;66758;52.078;5.070;2024-01-27T16:03:55;12.97;;;3.33;;
77598;SDS011;66758;52.078;5.070;2024-01-27T16:06:20;16.63;;;4.27;;
77598;SDS011;66758;52.078;5.070;2024-01-27T16:08:49;13.68;;;3.67;;
77598;SDS011;66758;52.078;5.070;2024-01-27T16:11:15;11.68;;;4.10;;
77598;SDS011;66758;52.078;5.070;2024-01-27T16:13:41;16.50;;;4.40;;
77598;SDS011;66758;52.078;5.070;2024-01-27T16:16:07;11.80;;;3.43;;
77598;SDS011;66758;52.078;5.070;2024-01-27T16:18:32;12.60;;;3.63;;
77598;SDS011;66758;52.078;5.070;2024-01-27T16:20:58;14.80;;;3.57;;
77598;SDS011;66758;52.078;5.070;2024-01-27T16:23:23;13.57;;;4.60;;
77598;SDS011;66758;52.078;5.070;2024-01-27T16:25:48;22.40;;;5.43;;
77598;SDS011;66758;52.078;5.070;2024-01-27T16:28:14;14.88;;;4.95;;
77598;SDS011;66758;52.078;5.070;2024-01-27T16:30:39;16.83;;;4.80;;
77598;SDS011;66758;52.078;5.070;2024-01-27T16:33:05;13.97;;;4.47;;
77598;SDS011;66758;52.078;5.070;2024-01-27T16:35:31;14.95;;;5.20;;
77598;SDS011;66758;52.078;5.070;2024-01-27T16:37:57;13.07;;;4.60;;
77598;SDS011;66758;52.078;5.070;2024-01-27T16:40:22;17.60;;;4.77;;
77598;SDS011;66758;52.078;5.070;2024-01-27T16:42:47;17.75;;;4.88;;
77598;SDS011;66758;52.078;5.070;2024-01-27T16:45:12;11.67;;;4.83;;
77598;SDS011;66758;52.078;5.070;2024-01-27T16:47:38;11.77;;;4.60;;
77598;SDS011;66758;52.078;5.070;2024-01-27T16:50:05;11.67;;;4.90;;
77598;SDS011;66758;52.078;5.070;2024-01-27T16:52:30;19.58;;;5.85;;
77598;SDS011;66758;52.078;5.070;2024-01-27T16:54:56;18.07;;;5.97;;
77598;SDS011;66758;52.078;5.070;2024-01-27T16:57:21;14.47;;;5.43;;
77598;SDS011;66758;52.078;5.070;2024-01-27T16:59:48;21.40;;;6.03;;
77598;SDS011;66758;52.078;5.070;2024-01-27T17:02:13;16.63;;;5.70;;
77598;SDS011;66758;52.078;5.070;2024-01-27T17:04:40;16.00;;;5.43;;
77598;SDS011;66758;52.078;5.070;2024-01-27T17:07:05;14.77;;;5.72;;
77598;SDS011;66758;52.078;5.070;2024-01-27T17:09:34;16.73;;;4.80;;
77598;SDS011;66758;52.078;5.070;2024-01-27T17:11:59;16.38;;;5.70;;
77598;SDS011;66758;52.078;5.070;2024-01-27T17:14:24;17.60;;;5.30;;
77598;SDS011;66758;52.078;5.070;2024-01-27T17:16:53;21.67;;;4.82;;
77598;SDS011;66758;52.078;5.070;2024-01-27T17:19:20;18.23;;;4.80;;
77598;SDS011;66758;52.078;5.070;2024-01-27T17:21:46;17.05;;;5.93;;
77598;SDS011;66758;52.078;5.070;2024-01-27T17:24:12;15.82;;;4.43;;
77598;SDS011;66758;52.078;5.070;2024-01-27T17:26:37;15.57;;;4.97;;
77598;SDS011;66758;52.078;5.070;2024-01-27T17:29:02;15.23;;;4.77;;
77598;SDS011;66758;52.078;5.070;2024-01-27T17:31:29;16.27;;;4.87;;
77598;SDS011;66758;52.078;5.070;2024-01-27T17:33:54;18.65;;;5.07;;
77598;SDS011;66758;52.078;5.070;2024-01-27T17:36:19;10.43;;;4.40;;
77598;SDS011;66758;52.078;5.070;2024-01-27T17:38:47;18.48;;;4.47;;
77598;SDS011;66758;52.078;5.070;2024-01-27T17:41:12;12.60;;;4.60;;
77598;SDS011;66758;52.078;5.070;2024-01-27T17:43:37;14.53;;;4.03;;
77598;SDS011;66758;52.078;5.070;2024-01-27T17:46:08;15.63;;;4.32;;
77598;SDS011;66758;52.078;5.070;2024-01-27T17:48:36;17.30;;;4.47;;
77598;SDS011;66758;52.078;5.070;2024-01-27T17:51:02;19.67;;;4.20;;
77598;SDS011;66758;52.078;5.070;2024-01-27T17:53:29;12.67;;;3.60;;
77598;SDS011;66758;52.078;5.070;2024-01-27T17:55:55;15.48;;;3.90;;
77598;SDS011;66758;52.078;5.070;2024-01-27T17:58:20;11.73;;;4.00;;
77598;SDS011;66758;52.078;5.070;2024-01-27T18:00:46;12.50;;;4.30;;
77598;SDS011;66758;52.078;5.070;2024-01-27T18:03:12;16.85;;;4.60;;
77598;SDS011;66758;52.078;5.070;2024-01-27T18:05:37;14.07;;;3.83;;
77598;SDS011;66758;52.078;5.070;2024-01-27T18:08:02;14.83;;;3.80;;
77598;SDS011;66758;52.078;5.070;2024-01-27T18:10:28;15.55;;;4.55;;
77598;SDS011;66758;52.078;5.070;2024-01-27T18:12:53;12.57;;;3.93;;
77598;SDS011;66758;52.078;5.070;2024-01-27T18:15:18;14.83;;;4.73;;
77598;SDS011;66758;52.078;5.070;2024-01-27T18:17:43;18.33;;;4.13;;
77598;SDS011;66758;52.078;5.070;2024-01-27T18:20:10;15.18;;;4.15;;
77598;SDS011;66758;52.078;5.070;2024-01-27T18:22:36;16.10;;;5.63;;
77598;SDS011;66758;52.078;5.070;2024-01-27T18:25:01;14.83;;;5.17;;
77598;SDS011;66758;52.078;5.070;2024-01-27T18:27:26;23.73;;;5.47;;
77598;SDS011;66758;52.078;5.070;2024-01-27T18:29:52;17.77;;;5.87;;
77598;SDS011;66758;52.078;5.070;2024-01-27T18:32:19;21.35;;;5.97;;
77598;SDS011;66758;52.078;5.070;2024-01-27T18:34:44;20.33;;;6.32;;
77598;SDS011;66758;52.078;5.070;2024-01-27T18:37:10;19.00;;;5.70;;
77598;SDS011;66758;52.078;5.070;2024-01-27T18:39:37;15.88;;;6.20;;
77598;SDS011;66758;52.078;5.070;2024-01-27T18:42:03;17.75;;;5.82;;
77598;SDS011;66758;52.078;5.070;2024-01-27T18:44:28;16.70;;;6.77;;
77598;SDS011;66758;52.078;5.070;2024-01-27T18:46:53;25.77;;;7.03;;
77598;SDS011;66758;52.078;5.070;2024-01-27T18:49:19;19.23;;;7.63;;
77598;SDS011;66758;52.078;5.070;2024-01-27T18:51:44;17.47;;;6.80;;
77598;SDS011;66758;52.078;5.070;2024-01-27T18:54:09;24.50;;;7.45;;
77598;SDS011;66758;52.078;5.070;2024-01-27T18:56:43;22.00;;;8.00;;
77598;SDS011;66758;52.078;5.070;2024-01-27T18:59:08;24.25;;;8.13;;
77598;SDS011;66758;52.078;5.070;2024-01-27T19:01:34;18.33;;;6.22;;
77598;SDS011;66758;52.078;5.070;2024-01-27T19:04:01;17.80;;;8.02;;
77598;SDS011;66758;52.078;5.070;2024-01-27T19:06:27;18.37;;;7.10;;
77598;SDS011;66758;52.078;5.070;2024-01-27T19:08:52;19.33;;;7.20;;
77598;SDS011;66758;52.078;5.070;2024-01-27T19:11:17;25.40;;;8.10;;
77598;SDS011;66758;52.078;5.070;2024-01-27T19:13:43;17.43;;;7.47;;
77598;SDS011;66758;52.078;5.070;2024-01-27T19:16:08;19.67;;;7.57;;
77598;SDS011;66758;52.078;5.070;2024-01-27T19:18:35;21.48;;;7.72;;
77598;SDS011;66758;52.078;5.070;2024-01-27T19:21:01;16.93;;;7.17;;
77598;SDS011;66758;52.078;5.070;2024-01-27T19:23:27;20.60;;;6.22;;
77598;SDS011;66758;52.078;5.070;2024-01-27T19:25:52;16.87;;;7.37;;
77598;SDS011;66758;52.078;5.070;2024-01-27T19:28:24;21.13;;;7.67;;
77598;SDS011;66758;52.078;5.070;2024-01-27T19:30:49;19.45;;;6.65;;
77598;SDS011;66758;52.078;5.070;2024-01-27T19:33:14;16.60;;;6.40;;
77598;SDS011;66758;52.078;5.070;2024-01-27T19:35:40;17.27;;;6.67;;
77598;SDS011;66758;52.078;5.070;2024-01-27T19:38:05;14.57;;;5.57;;
77598;SDS011;66758;52.078;5.070;2024-01-27T19:40:30;20.83;;;6.73;;
77598;SDS011;66758;52.078;5.070;2024-01-27T19:42:56;18.77;;;6.70;;
77598;SDS011;66758;52.078;5.070;2024-01-27T19:45:22;23.77;;;6.72;;
77598;SDS011;66758;52.078;5.070;2024-01-27T19:47:48;22.33;;;6.37;;
77598;SDS011;66758;52.078;5.070;2024-01-27T19:50:13;17.00;;;6.70;;